sensor_id;sensor_type;location;lat;lon;timestamp;P1;durP1;ratioP1;P2;durP2;ratioP2
6626;SDS011;3349;49.830;8.748;2023-11-19T00:01:32;4.60;;;2.97;;
6626;SDS011;3349;49.830;8.748;2023-11-19T00:03:59;3.70;;;2.80;;
6626;SDS011;3349;49.830;8.748;2023-11-19T00:06:26;3.17;;;2.47;;
6626;SDS011;3349;49.830;8.748;2023-11-19T00:08:52;3.70;;;3.10;;
6626;SDS011;3349;49.830;8.748;2023-11-19T00:11:19;2.60;;;2.40;;
6626;SDS011;3349;49.830;8.748;2023-11-19T00:13:46;2.22;;;2.03;;
6626;SDS011;3349;49.830;8.748;2023-11-19T00:16:13;4.95;;;2.25;;
6626;SDS011;3349;49.830;8.748;2023-11-19T00:18:42;3.05;;;2.20;;
6626;SDS011;3349;49.830;8.748;2023-11-19T00:21:09;2.40;;;2.20;;
6626;SDS011;3349;49.830;8.748;2023-11-19T00:23:36;2.28;;;2.08;;
6626;SDS011;3349;49.830;8.748;2023-11-19T00:26:03;2.60;;;2.40;;
6626;SDS011;3349;49.830;8.748;2023-11-19T00:28:31;3.20;;;2.78;;
6626;SDS011;3349;49.830;8.748;2023-11-19T00:30:58;2.67;;;2.47;;
6626;SDS011;3349;49.830;8.748;2023-11-19T00:33:24;7.75;;;2.63;;
6626;SDS011;3349;49.830;8.748;2023-11-19T00:35:52;2.75;;;2.50;;
6626;SDS011;3349;49.830;8.748;2023-11-19T00:38:20;2.78;;;2.47;;
6626;SDS011;3349;49.830;8.748;2023-11-19T00:40:47;3.38;;;2.97;;
6626;SDS011;3349;49.830;8.748;2023-11-19T00:43:13;3.45;;;2.30;;
6626;SDS011;3349;49.830;8.748;2023-11-19T00:45:40;2.72;;;2.53;;
6626;SDS011;3349;49.830;8.748;2023-11-19T00:48:08;2.88;;;2.53;;
6626;SDS011;3349;49.830;8.748;2023-11-19T00:50:34;3.05;;;2.75;;
6626;SDS011;3349;49.830;8.748;2023-11-19T00:53:02;2.67;;;2.47;;
6626;SDS011;3349;49.830;8.748;2023-11-19T00:55:29;2.70;;;2.50;;
6626;SDS011;3349;49.830;8.748;2023-11-19T00:57:56;3.00;;;2.30;;
6626;SDS011;3349;49.830;8.748;2023-11-19T01:00:23;4.53;;;3.03;;
6626;SDS011;3349;49.830;8.748;2023-11-19T01:02:52;4.30;;;2.53;;
6626;SDS011;3349;49.830;8.748;2023-11-19T01:05:19;3.13;;;2.75;;
6626;SDS011;3349;49.830;8.748;2023-11-19T01:07:49;4.57;;;2.65;;
6626;SDS011;3349;49.830;8.748;2023-11-19T01:10:20;3.78;;;2.25;;
6626;SDS011;3349;49.830;8.748;2023-11-19T01:12:46;2.92;;;2.60;;
6626;SDS011;3349;49.830;8.748;2023-11-19T01:15:13;4.43;;;2.70;;
6626;SDS011;3349;49.830;8.748;2023-11-19T01:17:40;2.50;;;2.10;;
6626;SDS011;3349;49.830;8.748;2023-11-19T01:20:06;1.98;;;1.85;;
6626;SDS011;3349;49.830;8.748;2023-11-19T01:22:37;2.50;;;2.30;;
6626;SDS011;3349;49.830;8.748;2023-11-19T01:25:04;2.97;;;2.10;;
6626;SDS011;3349;49.830;8.748;2023-11-19T01:27:33;2.95;;;2.33;;
6626;SDS011;3349;49.830;8.748;2023-11-19T01:30:00;4.70;;;2.40;;
6626;SDS011;3349;49.830;8.748;2023-11-19T01:32:28;3.13;;;2.60;;
6626;SDS011;3349;49.830;8.748;2023-11-19T01:34:55;2.95;;;2.00;;
6626;SDS011;3349;49.830;8.748;2023-11-19T01:37:21;2.45;;;2.25;;
6626;SDS011;3349;49.830;8.748;2023-11-19T01:39:48;2.72;;;2.40;;
6626;SDS011;3349;49.830;8.748;2023-11-19T01:42:15;5.78;;;1.92;;
6626;SDS011;3349;49.830;8.748;2023-11-19T01:44:53;2.40;;;1.95;;
6626;SDS011;3349;49.830;8.748;2023-11-19T01:47:23;2.40;;;2.05;;
6626;SDS011;3349;49.830;8.748;2023-11-19T01:49:50;2.35;;;2.00;;
6626;SDS011;3349;49.830;8.748;2023-11-19T01:52:17;2.00;;;1.67;;
6626;SDS011;3349;49.830;8.748;2023-11-19T01:54:45;2.92;;;1.80;;
6626;SDS011;3349;49.830;8.748;2023-11-19T01:57:12;1.58;;;1.48;;
6626;SDS011;3349;49.830;8.748;2023-11-19T01:59:39;3.17;;;2.08;;
6626;SDS011;3349;49.830;8.748;2023-11-19T02:02:08;1.63;;;1.40;;
6626;SDS011;3349;49.830;8.748;2023-11-19T02:04:35;1.98;;;1.60;;
6626;SDS011;3349;49.830;8.748;2023-11-19T02:07:03;1.60;;;1.40;;
6626;SDS011;3349;49.830;8.748;2023-11-19T02:09:30;1.67;;;1.55;;
6626;SDS011;3349;49.830;8.748;2023-11-19T02:11:56;1.20;;;1.10;;
6626;SDS011;3349;49.830;8.748;2023-11-19T02:14:23;1.50;;;1.20;;
6626;SDS011;3349;49.830;8.748;2023-11-19T02:16:51;1.70;;;1.40;;
6626;SDS011;3349;49.830;8.748;2023-11-19T02:19:20;1.50;;;1.40;;
6626;SDS011;3349;49.830;8.748;2023-11-19T02:21:47;1.63;;;1.10;;
6626;SDS011;3349;49.830;8.748;2023-11-19T02:24:14;1.30;;;1.20;;
6626;SDS011;3349;49.830;8.748;2023-11-19T02:26:43;1.33;;;1.23;;
6626;SDS011;3349;49.830;8.748;2023-11-19T02:29:20;1.23;;;1.13;;
6626;SDS011;3349;49.830;8.748;2023-11-19T02:31:47;1.52;;;1.42;;
6626;SDS011;3349;49.830;8.748;2023-11-19T02:34:14;1.23;;;1.10;;
6626;SDS011;3349;49.830;8.748;2023-11-19T02:36:41;1.45;;;1.35;;
6626;SDS011;3349;49.830;8.748;2023-11-19T02:39:08;1.30;;;1.20;;
6626;SDS011;3349;49.830;8.748;2023-11-19T02:41:37;1.10;;;1.00;;
6626;SDS011;3349;49.830;8.748;2023-11-19T02:44:04;1.00;;;1.00;;
6626;SDS011;3349;49.830;8.748;2023-11-19T02:46:33;3.10;;;1.13;;
6626;SDS011;3349;49.830;8.748;2023-11-19T02:49:00;3.08;;;1.13;;
6626;SDS011;3349;49.830;8.748;2023-11-19T02:51:26;0.90;;;0.90;;
6626;SDS011;3349;49.830;8.748;2023-11-19T02:53:55;1.25;;;1.15;;
6626;SDS011;3349;49.830;8.748;2023-11-19T02:56:22;1.45;;;1.23;;
6626;SDS011;3349;49.830;8.748;2023-11-19T02:58:51;1.25;;;1.13;;
6626;SDS011;3349;49.830;8.748;2023-11-19T03:01:21;1.42;;;1.25;;
6626;SDS011;3349;49.830;8.748;2023-11-19T03:03:55;2.35;;;1.10;;
6626;SDS011;3349;49.830;8.748;2023-11-19T03:06:23;1.35;;;1.23;;
6626;SDS011;3349;49.830;8.748;2023-11-19T03:08:50;2.00;;;1.30;;
6626;SDS011;3349;49.830;8.748;2023-11-19T03:11:17;1.48;;;1.38;;
6626;SDS011;3349;49.830;8.748;2023-11-19T03:13:44;1.30;;;1.20;;
6626;SDS011;3349;49.830;8.748;2023-11-19T03:16:11;1.48;;;1.38;;
6626;SDS011;3349;49.830;8.748;2023-11-19T03:18:38;1.60;;;1.50;;
6626;SDS011;3349;49.830;8.748;2023-11-19T03:21:06;1.30;;;1.13;;
6626;SDS011;3349;49.830;8.748;2023-11-19T03:23:34;1.35;;;1.25;;
6626;SDS011;3349;49.830;8.748;2023-11-19T03:26:00;1.15;;;1.05;;
6626;SDS011;3349;49.830;8.748;2023-11-19T03:28:30;1.20;;;1.10;;
6626;SDS011;3349;49.830;8.748;2023-11-19T03:30:57;1.30;;;1.20;;
6626;SDS011;3349;49.830;8.748;2023-11-19T03:33:23;2.50;;;2.30;;
6626;SDS011;3349;49.830;8.748;2023-11-19T03:35:50;2.25;;;1.80;;
6626;SDS011;3349;49.830;8.748;2023-11-19T03:38:18;1.83;;;1.67;;
6626;SDS011;3349;49.830;8.748;2023-11-19T03:40:45;1.38;;;1.27;;
6626;SDS011;3349;49.830;8.748;2023-11-19T03:43:12;2.03;;;1.38;;
6626;SDS011;3349;49.830;8.748;2023-11-19T03:45:39;1.40;;;1.10;;
6626;SDS011;3349;49.830;8.748;2023-11-19T03:48:05;1.50;;;1.27;;
6626;SDS011;3349;49.830;8.748;2023-11-19T03:50:32;1.67;;;1.40;;
6626;SDS011;3349;49.830;8.748;2023-11-19T03:53:00;1.58;;;1.48;;
6626;SDS011;3349;49.830;8.748;2023-11-19T03:55:29;1.55;;;1.30;;
6626;SDS011;3349;49.830;8.748;2023-11-19T03:57:56;1.60;;;1.50;;
6626;SDS011;3349;49.830;8.748;2023-11-19T04:00:23;1.27;;;1.17;;
6626;SDS011;3349;49.830;8.748;2023-11-19T04:02:49;2.55;;;1.10;;
6626;SDS011;3349;49.830;8.748;2023-11-19T04:05:16;1.33;;;1.23;;
6626;SDS011;3349;49.830;8.748;2023-11-19T04:07:43;1.45;;;1.35;;
6626;SDS011;3349;49.830;8.748;2023-11-19T04:10:10;2.72;;;1.50;;
6626;SDS011;3349;49.830;8.748;2023-11-19T04:12:38;1.35;;;1.23;;
6626;SDS011;3349;49.830;8.748;2023-11-19T04:15:05;1.45;;;1.25;;
6626;SDS011;3349;49.830;8.748;2023-11-19T04:17:33;3.55;;;1.33;;
6626;SDS011;3349;49.830;8.748;2023-11-19T04:20:00;1.48;;;1.38;;
6626;SDS011;3349;49.830;8.748;2023-11-19T04:22:29;1.15;;;1.05;;
6626;SDS011;3349;49.830;8.748;2023-11-19T04:24:56;1.45;;;1.35;;
6626;SDS011;3349;49.830;8.748;2023-11-19T04:27:23;1.60;;;1.50;;
6626;SDS011;3349;49.830;8.748;2023-11-19T04:29:51;1.50;;;1.40;;
6626;SDS011;3349;49.830;8.748;2023-11-19T04:32:18;2.83;;;1.50;;
6626;SDS011;3349;49.830;8.748;2023-11-19T04:34:46;1.50;;;1.40;;
6626;SDS011;3349;49.830;8.748;2023-11-19T04:37:12;1.40;;;1.30;;
6626;SDS011;3349;49.830;8.748;2023-11-19T04:39:39;1.42;;;1.33;;
6626;SDS011;3349;49.830;8.748;2023-11-19T04:42:06;1.13;;;1.02;;
6626;SDS011;3349;49.830;8.748;2023-11-19T04:44:32;1.40;;;1.30;;
6626;SDS011;3349;49.830;8.748;2023-11-19T04:47:01;2.67;;;1.50;;
6626;SDS011;3349;49.830;8.748;2023-11-19T04:49:27;1.90;;;1.60;;
6626;SDS011;3349;49.830;8.748;2023-11-19T04:51:55;2.20;;;1.70;;
6626;SDS011;3349;49.830;8.748;2023-11-19T04:54:22;2.33;;;2.00;;
6626;SDS011;3349;49.830;8.748;2023-11-19T04:56:49;2.25;;;2.05;;
6626;SDS011;3349;49.830;8.748;2023-11-19T04:59:16;2.13;;;1.92;;
6626;SDS011;3349;49.830;8.748;2023-11-19T05:01:46;3.38;;;2.53;;
6626;SDS011;3349;49.830;8.748;2023-11-19T05:04:14;2.50;;;2.30;;
6626;SDS011;3349;49.830;8.748;2023-11-19T05:06:41;3.20;;;2.30;;
6626;SDS011;3349;49.830;8.748;2023-11-19T05:09:07;5.85;;;2.53;;
6626;SDS011;3349;49.830;8.748;2023-11-19T05:11:37;2.88;;;2.30;;
6626;SDS011;3349;49.830;8.748;2023-11-19T05:14:05;2.95;;;2.30;;
6626;SDS011;3349;49.830;8.748;2023-11-19T05:16:32;4.82;;;2.78;;
6626;SDS011;3349;49.830;8.748;2023-11-19T05:18:58;3.17;;;2.70;;
6626;SDS011;3349;49.830;8.748;2023-11-19T05:21:26;3.03;;;2.72;;
6626;SDS011;3349;49.830;8.748;2023-11-19T05:23:53;4.07;;;2.65;;
6626;SDS011;3349;49.830;8.748;2023-11-19T05:26:20;3.55;;;3.00;;
6626;SDS011;3349;49.830;8.748;2023-11-19T05:28:48;3.28;;;2.97;;
6626;SDS011;3349;49.830;8.748;2023-11-19T05:31:15;3.20;;;2.90;;
6626;SDS011;3349;49.830;8.748;2023-11-19T05:33:43;2.90;;;2.47;;
6626;SDS011;3349;49.830;8.748;2023-11-19T05:36:10;4.18;;;2.63;;
6626;SDS011;3349;49.830;8.748;2023-11-19T05:38:40;2.30;;;2.10;;
6626;SDS011;3349;49.830;8.748;2023-11-19T05:41:06;3.28;;;2.35;;
6626;SDS011;3349;49.830;8.748;2023-11-19T05:43:33;3.53;;;2.50;;
6626;SDS011;3349;49.830;8.748;2023-11-19T05:46:00;2.55;;;2.33;;
6626;SDS011;3349;49.830;8.748;2023-11-19T05:48:27;5.68;;;2.20;;
6626;SDS011;3349;49.830;8.748;2023-11-19T05:50:54;3.58;;;2.10;;
6626;SDS011;3349;49.830;8.748;2023-11-19T05:53:20;3.38;;;2.60;;
6626;SDS011;3349;49.830;8.748;2023-11-19T05:55:48;2.40;;;2.20;;
6626;SDS011;3349;49.830;8.748;2023-11-19T05:58:20;2.97;;;2.50;;
6626;SDS011;3349;49.830;8.748;2023-11-19T06:00:50;4.03;;;2.75;;
6626;SDS011;3349;49.830;8.748;2023-11-19T06:03:17;2.60;;;2.13;;
6626;SDS011;3349;49.830;8.748;2023-11-19T06:05:44;2.60;;;2.40;;
6626;SDS011;3349;49.830;8.748;2023-11-19T06:08:11;3.03;;;2.50;;
6626;SDS011;3349;49.830;8.748;2023-11-19T06:10:39;2.65;;;2.45;;
6626;SDS011;3349;49.830;8.748;2023-11-19T06:13:07;3.95;;;2.78;;
6626;SDS011;3349;49.830;8.748;2023-11-19T06:15:35;5.03;;;2.88;;
6626;SDS011;3349;49.830;8.748;2023-11-19T06:18:02;2.88;;;2.63;;
6626;SDS011;3349;49.830;8.748;2023-11-19T06:20:29;2.10;;;1.90;;
6626;SDS011;3349;49.830;8.748;2023-11-19T06:22:56;3.72;;;2.53;;
6626;SDS011;3349;49.830;8.748;2023-11-19T06:25:23;2.90;;;2.63;;
6626;SDS011;3349;49.830;8.748;2023-11-19T06:27:50;2.35;;;2.15;;
6626;SDS011;3349;49.830;8.748;2023-11-19T06:30:18;2.63;;;2.28;;
6626;SDS011;3349;49.830;8.748;2023-11-19T06:32:45;3.83;;;2.28;;
6626;SDS011;3349;49.830;8.748;2023-11-19T06:35:12;3.63;;;2.30;;
6626;SDS011;3349;49.830;8.748;2023-11-19T06:37:40;3.75;;;2.30;;
6626;SDS011;3349;49.830;8.748;2023-11-19T06:40:07;2.30;;;1.90;;
6626;SDS011;3349;49.830;8.748;2023-11-19T06:42:35;4.10;;;2.83;;
6626;SDS011;3349;49.830;8.748;2023-11-19T06:45:02;3.67;;;2.90;;
6626;SDS011;3349;49.830;8.748;2023-11-19T06:47:30;3.42;;;2.17;;
6626;SDS011;3349;49.830;8.748;2023-11-19T06:49:57;2.83;;;2.60;;
6626;SDS011;3349;49.830;8.748;2023-11-19T06:52:24;2.63;;;2.28;;
6626;SDS011;3349;49.830;8.748;2023-11-19T06:54:51;4.13;;;2.38;;
6626;SDS011;3349;49.830;8.748;2023-11-19T06:57:17;3.22;;;2.47;;
6626;SDS011;3349;49.830;8.748;2023-11-19T06:59:45;2.80;;;2.60;;
6626;SDS011;3349;49.830;8.748;2023-11-19T07:02:12;2.92;;;2.63;;
6626;SDS011;3349;49.830;8.748;2023-11-19T07:04:40;3.53;;;2.47;;
6626;SDS011;3349;49.830;8.748;2023-11-19T07:07:08;3.70;;;3.30;;
6626;SDS011;3349;49.830;8.748;2023-11-19T07:09:34;4.82;;;3.00;;
6626;SDS011;3349;49.830;8.748;2023-11-19T07:12:02;4.85;;;2.85;;
6626;SDS011;3349;49.830;8.748;2023-11-19T07:14:30;3.25;;;2.90;;
6626;SDS011;3349;49.830;8.748;2023-11-19T07:16:56;3.28;;;2.90;;
6626;SDS011;3349;49.830;8.748;2023-11-19T07:19:23;3.72;;;3.33;;
6626;SDS011;3349;49.830;8.748;2023-11-19T07:21:51;3.72;;;3.28;;
6626;SDS011;3349;49.830;8.748;2023-11-19T07:24:19;5.22;;;2.90;;
6626;SDS011;3349;49.830;8.748;2023-11-19T07:26:46;3.20;;;2.90;;
6626;SDS011;3349;49.830;8.748;2023-11-19T07:29:13;5.40;;;3.30;;
6626;SDS011;3349;49.830;8.748;2023-11-19T07:31:41;4.65;;;2.70;;
6626;SDS011;3349;49.830;8.748;2023-11-19T07:34:09;5.75;;;3.50;;
6626;SDS011;3349;49.830;8.748;2023-11-19T07:36:36;6.78;;;3.45;;
6626;SDS011;3349;49.830;8.748;2023-11-19T07:39:05;4.82;;;3.53;;
6626;SDS011;3349;49.830;8.748;2023-11-19T07:41:31;6.30;;;3.10;;
6626;SDS011;3349;49.830;8.748;2023-11-19T07:43:58;5.32;;;2.80;;
6626;SDS011;3349;49.830;8.748;2023-11-19T07:46:25;6.57;;;3.20;;
6626;SDS011;3349;49.830;8.748;2023-11-19T07:48:52;6.20;;;3.17;;
6626;SDS011;3349;49.830;8.748;2023-11-19T07:51:19;4.03;;;2.50;;
6626;SDS011;3349;49.830;8.748;2023-11-19T07:53:45;4.18;;;3.17;;
6626;SDS011;3349;49.830;8.748;2023-11-19T07:56:13;6.78;;;3.15;;
6626;SDS011;3349;49.830;8.748;2023-11-19T07:58:40;4.80;;;2.72;;
6626;SDS011;3349;49.830;8.748;2023-11-19T08:01:07;4.05;;;2.72;;
6626;SDS011;3349;49.830;8.748;2023-11-19T08:03:34;4.22;;;2.22;;
6626;SDS011;3349;49.830;8.748;2023-11-19T08:06:01;3.85;;;2.63;;
6626;SDS011;3349;49.830;8.748;2023-11-19T08:08:30;4.63;;;3.03;;
6626;SDS011;3349;49.830;8.748;2023-11-19T08:10:58;5.63;;;2.75;;
6626;SDS011;3349;49.830;8.748;2023-11-19T08:13:26;4.47;;;2.85;;
6626;SDS011;3349;49.830;8.748;2023-11-19T08:15:52;5.97;;;2.90;;
6626;SDS011;3349;49.830;8.748;2023-11-19T08:18:18;5.93;;;2.75;;
6626;SDS011;3349;49.830;8.748;2023-11-19T08:20:45;4.35;;;2.90;;
6626;SDS011;3349;49.830;8.748;2023-11-19T08:23:17;6.10;;;2.95;;
6626;SDS011;3349;49.830;8.748;2023-11-19T08:25:44;4.00;;;2.63;;
6626;SDS011;3349;49.830;8.748;2023-11-19T08:28:11;5.88;;;2.60;;
6626;SDS011;3349;49.830;8.748;2023-11-19T08:30:39;6.40;;;2.70;;
6626;SDS011;3349;49.830;8.748;2023-11-19T08:33:05;3.78;;;2.22;;
6626;SDS011;3349;49.830;8.748;2023-11-19T08:35:32;3.53;;;2.50;;
6626;SDS011;3349;49.830;8.748;2023-11-19T08:37:59;4.25;;;2.47;;
6626;SDS011;3349;49.830;8.748;2023-11-19T08:40:26;6.45;;;2.85;;
6626;SDS011;3349;49.830;8.748;2023-11-19T08:42:53;5.82;;;2.45;;
6626;SDS011;3349;49.830;8.748;2023-11-19T08:45:20;7.78;;;2.70;;
6626;SDS011;3349;49.830;8.748;2023-11-19T08:47:48;4.05;;;2.47;;
6626;SDS011;3349;49.830;8.748;2023-11-19T08:50:15;5.88;;;2.50;;
6626;SDS011;3349;49.830;8.748;2023-11-19T08:52:42;4.78;;;2.50;;
6626;SDS011;3349;49.830;8.748;2023-11-19T08:55:08;6.00;;;2.70;;
6626;SDS011;3349;49.830;8.748;2023-11-19T08:57:36;4.93;;;2.38;;
6626;SDS011;3349;49.830;8.748;2023-11-19T09:00:03;4.60;;;2.38;;
6626;SDS011;3349;49.830;8.748;2023-11-19T09:02:33;4.95;;;2.63;;
6626;SDS011;3349;49.830;8.748;2023-11-19T09:05:01;5.65;;;2.70;;
6626;SDS011;3349;49.830;8.748;2023-11-19T09:07:27;7.55;;;2.28;;
6626;SDS011;3349;49.830;8.748;2023-11-19T09:09:54;2.90;;;2.20;;
6626;SDS011;3349;49.830;8.748;2023-11-19T09:12:21;4.55;;;2.03;;
6626;SDS011;3349;49.830;8.748;2023-11-19T09:14:48;7.85;;;2.17;;
6626;SDS011;3349;49.830;8.748;2023-11-19T09:17:15;3.60;;;2.22;;
6626;SDS011;3349;49.830;8.748;2023-11-19T09:19:43;2.75;;;2.00;;
6626;SDS011;3349;49.830;8.748;2023-11-19T09:22:11;4.22;;;2.05;;
6626;SDS011;3349;49.830;8.748;2023-11-19T09:24:37;3.88;;;2.42;;
6626;SDS011;3349;49.830;8.748;2023-11-19T09:27:04;2.92;;;1.90;;
6626;SDS011;3349;49.830;8.748;2023-11-19T09:29:31;3.63;;;1.83;;
6626;SDS011;3349;49.830;8.748;2023-11-19T09:31:58;3.50;;;2.10;;
6626;SDS011;3349;49.830;8.748;2023-11-19T09:34:25;5.68;;;1.95;;
6626;SDS011;3349;49.830;8.748;2023-11-19T09:36:52;3.92;;;2.30;;
6626;SDS011;3349;49.830;8.748;2023-11-19T09:39:20;3.05;;;2.20;;
6626;SDS011;3349;49.830;8.748;2023-11-19T09:41:47;4.10;;;2.15;;
6626;SDS011;3349;49.830;8.748;2023-11-19T09:44:14;3.05;;;2.17;;
6626;SDS011;3349;49.830;8.748;2023-11-19T09:46:43;4.95;;;2.75;;
6626;SDS011;3349;49.830;8.748;2023-11-19T09:49:10;2.85;;;2.25;;
6626;SDS011;3349;49.830;8.748;2023-11-19T09:51:38;3.70;;;2.13;;
6626;SDS011;3349;49.830;8.748;2023-11-19T09:54:05;5.47;;;2.80;;
6626;SDS011;3349;49.830;8.748;2023-11-19T09:56:33;3.42;;;2.88;;
6626;SDS011;3349;49.830;8.748;2023-11-19T09:59:03;6.40;;;3.17;;
6626;SDS011;3349;49.830;8.748;2023-11-19T10:01:31;4.75;;;2.75;;
6626;SDS011;3349;49.830;8.748;2023-11-19T10:03:57;7.25;;;3.67;;
6626;SDS011;3349;49.830;8.748;2023-11-19T10:06:26;4.50;;;3.33;;
6626;SDS011;3349;49.830;8.748;2023-11-19T10:08:53;5.13;;;2.97;;
6626;SDS011;3349;49.830;8.748;2023-11-19T10:11:20;5.00;;;3.53;;
6626;SDS011;3349;49.830;8.748;2023-11-19T10:13:48;7.70;;;3.38;;
6626;SDS011;3349;49.830;8.748;2023-11-19T10:16:15;4.45;;;3.53;;
6626;SDS011;3349;49.830;8.748;2023-11-19T10:18:44;4.93;;;3.28;;
6626;SDS011;3349;49.830;8.748;2023-11-19T10:21:12;8.90;;;2.78;;
6626;SDS011;3349;49.830;8.748;2023-11-19T10:23:48;5.15;;;2.83;;
6626;SDS011;3349;49.830;8.748;2023-11-19T10:26:16;7.05;;;3.13;;
6626;SDS011;3349;49.830;8.748;2023-11-19T10:28:43;9.68;;;2.97;;
6626;SDS011;3349;49.830;8.748;2023-11-19T10:31:12;5.97;;;2.35;;
6626;SDS011;3349;49.830;8.748;2023-11-19T10:33:39;7.97;;;2.20;;
6626;SDS011;3349;49.830;8.748;2023-11-19T10:36:07;5.18;;;2.47;;
6626;SDS011;3349;49.830;8.748;2023-11-19T10:38:34;5.50;;;2.22;;
6626;SDS011;3349;49.830;8.748;2023-11-19T10:41:01;6.85;;;2.80;;
6626;SDS011;3349;49.830;8.748;2023-11-19T10:43:29;4.25;;;2.38;;
6626;SDS011;3349;49.830;8.748;2023-11-19T10:46:08;1.88;;;1.73;;
6626;SDS011;3349;49.830;8.748;2023-11-19T10:48:38;3.55;;;2.25;;
6626;SDS011;3349;49.830;8.748;2023-11-19T10:51:05;4.80;;;2.58;;
6626;SDS011;3349;49.830;8.748;2023-11-19T10:53:33;5.63;;;2.05;;
6626;SDS011;3349;49.830;8.748;2023-11-19T10:56:04;6.63;;;2.28;;
6626;SDS011;3349;49.830;8.748;2023-11-19T10:58:36;3.58;;;1.90;;
6626;SDS011;3349;49.830;8.748;2023-11-19T11:01:07;5.68;;;2.05;;
6626;SDS011;3349;49.830;8.748;2023-11-19T11:03:40;5.28;;;2.10;;
6626;SDS011;3349;49.830;8.748;2023-11-19T11:06:08;5.30;;;2.53;;
6626;SDS011;3349;49.830;8.748;2023-11-19T11:08:36;4.00;;;2.08;;
6626;SDS011;3349;49.830;8.748;2023-11-19T11:11:04;3.78;;;2.00;;
6626;SDS011;3349;49.830;8.748;2023-11-19T11:13:32;4.97;;;1.90;;
6626;SDS011;3349;49.830;8.748;2023-11-19T11:15:59;3.38;;;1.80;;
6626;SDS011;3349;49.830;8.748;2023-11-19T11:18:26;3.08;;;1.90;;
6626;SDS011;3349;49.830;8.748;2023-11-19T11:20:55;5.85;;;2.33;;
6626;SDS011;3349;49.830;8.748;2023-11-19T11:23:44;5.93;;;1.77;;
6626;SDS011;3349;49.830;8.748;2023-11-19T11:26:28;8.73;;;2.25;;
6626;SDS011;3349;49.830;8.748;2023-11-19T11:29:10;2.55;;;2.05;;
6626;SDS011;3349;49.830;8.748;2023-11-19T11:31:44;5.03;;;1.90;;
6626;SDS011;3349;49.830;8.748;2023-11-19T11:34:29;3.45;;;1.88;;
6626;SDS011;3349;49.830;8.748;2023-11-19T11:37:19;4.85;;;1.77;;
6626;SDS011;3349;49.830;8.748;2023-11-19T11:39:51;6.72;;;1.83;;
6626;SDS011;3349;49.830;8.748;2023-11-19T11:42:34;4.63;;;1.98;;
6626;SDS011;3349;49.830;8.748;2023-11-19T11:45:03;4.07;;;2.17;;
6626;SDS011;3349;49.830;8.748;2023-11-19T11:50:35;2.95;;;1.80;;
6626;SDS011;3349;49.830;8.748;2023-11-19T11:53:16;4.72;;;1.90;;
6626;SDS011;3349;49.830;8.748;2023-11-19T11:55:53;3.03;;;2.05;;
6626;SDS011;3349;49.830;8.748;2023-11-19T11:58:28;4.72;;;1.90;;
6626;SDS011;3349;49.830;8.748;2023-11-19T12:00:57;3.80;;;2.00;;
6626;SDS011;3349;49.830;8.748;2023-11-19T12:03:26;6.30;;;2.40;;
6626;SDS011;3349;49.830;8.748;2023-11-19T12:05:54;6.13;;;2.15;;
6626;SDS011;3349;49.830;8.748;2023-11-19T12:08:25;4.88;;;2.38;;
6626;SDS011;3349;49.830;8.748;2023-11-19T12:10:53;7.47;;;2.17;;
6626;SDS011;3349;49.830;8.748;2023-11-19T12:13:23;7.07;;;1.92;;
6626;SDS011;3349;49.830;8.748;2023-11-19T12:16:08;4.82;;;1.70;;
6626;SDS011;3349;49.830;8.748;2023-11-19T12:18:36;7.10;;;1.92;;
6626;SDS011;3349;49.830;8.748;2023-11-19T12:21:06;3.95;;;1.88;;
6626;SDS011;3349;49.830;8.748;2023-11-19T12:23:36;4.82;;;1.90;;
6626;SDS011;3349;49.830;8.748;2023-11-19T12:26:34;5.43;;;1.80;;
6626;SDS011;3349;49.830;8.748;2023-11-19T12:29:04;4.22;;;1.65;;
6626;SDS011;3349;49.830;8.748;2023-11-19T12:31:32;5.90;;;2.00;;
6626;SDS011;3349;49.830;8.748;2023-11-19T12:34:04;8.00;;;2.15;;
6626;SDS011;3349;49.830;8.748;2023-11-19T12:36:32;4.63;;;1.60;;
6626;SDS011;3349;49.830;8.748;2023-11-19T12:39:01;5.97;;;1.90;;
6626;SDS011;3349;49.830;8.748;2023-11-19T12:41:28;3.40;;;1.67;;
6626;SDS011;3349;49.830;8.748;2023-11-19T12:44:08;3.92;;;1.70;;
6626;SDS011;3349;49.830;8.748;2023-11-19T12:46:36;7.32;;;2.20;;
6626;SDS011;3349;49.830;8.748;2023-11-19T12:49:02;6.97;;;1.77;;
6626;SDS011;3349;49.830;8.748;2023-11-19T12:51:31;4.95;;;2.10;;
6626;SDS011;3349;49.830;8.748;2023-11-19T12:53:57;3.65;;;1.80;;
6626;SDS011;3349;49.830;8.748;2023-11-19T12:56:25;4.22;;;1.60;;
6626;SDS011;3349;49.830;8.748;2023-11-19T12:58:52;7.82;;;1.70;;
6626;SDS011;3349;49.830;8.748;2023-11-19T13:01:19;4.75;;;1.90;;
6626;SDS011;3349;49.830;8.748;2023-11-19T13:03:46;4.38;;;1.83;;
6626;SDS011;3349;49.830;8.748;2023-11-19T13:06:16;4.57;;;1.70;;
6626;SDS011;3349;49.830;8.748;2023-11-19T13:08:46;5.65;;;1.92;;
6626;SDS011;3349;49.830;8.748;2023-11-19T13:11:15;7.53;;;1.85;;
6626;SDS011;3349;49.830;8.748;2023-11-19T13:13:58;7.65;;;2.10;;
6626;SDS011;3349;49.830;8.748;2023-11-19T13:16:27;6.13;;;1.90;;
6626;SDS011;3349;49.830;8.748;2023-11-19T13:18:54;5.72;;;1.70;;
6626;SDS011;3349;49.830;8.748;2023-11-19T13:21:22;2.80;;;1.88;;
6626;SDS011;3349;49.830;8.748;2023-11-19T13:23:48;6.72;;;2.10;;
6626;SDS011;3349;49.830;8.748;2023-11-19T13:26:16;5.65;;;2.03;;
6626;SDS011;3349;49.830;8.748;2023-11-19T13:28:44;8.02;;;2.35;;
6626;SDS011;3349;49.830;8.748;2023-11-19T13:31:11;6.95;;;2.30;;
6626;SDS011;3349;49.830;8.748;2023-11-19T13:33:37;10.85;;;2.30;;
6626;SDS011;3349;49.830;8.748;2023-11-19T13:36:04;10.32;;;2.40;;
6626;SDS011;3349;49.830;8.748;2023-11-19T13:38:32;5.28;;;2.47;;
6626;SDS011;3349;49.830;8.748;2023-11-19T13:41:00;5.88;;;2.35;;
6626;SDS011;3349;49.830;8.748;2023-11-19T13:43:27;6.60;;;2.00;;
6626;SDS011;3349;49.830;8.748;2023-11-19T13:45:55;6.88;;;2.03;;
6626;SDS011;3349;49.830;8.748;2023-11-19T13:48:23;8.15;;;2.28;;
6626;SDS011;3349;49.830;8.748;2023-11-19T13:50:51;7.10;;;2.20;;
6626;SDS011;3349;49.830;8.748;2023-11-19T13:53:18;8.10;;;2.38;;
6626;SDS011;3349;49.830;8.748;2023-11-19T13:55:45;6.85;;;2.20;;
6626;SDS011;3349;49.830;8.748;2023-11-19T13:58:12;6.88;;;2.40;;
6626;SDS011;3349;49.830;8.748;2023-11-19T14:00:39;7.45;;;2.90;;
6626;SDS011;3349;49.830;8.748;2023-11-19T14:03:08;8.18;;;2.42;;
6626;SDS011;3349;49.830;8.748;2023-11-19T14:05:35;11.75;;;3.00;;
6626;SDS011;3349;49.830;8.748;2023-11-19T14:08:02;6.63;;;3.25;;
6626;SDS011;3349;49.830;8.748;2023-11-19T14:10:36;6.78;;;2.72;;
6626;SDS011;3349;49.830;8.748;2023-11-19T14:13:04;5.45;;;2.40;;
6626;SDS011;3349;49.830;8.748;2023-11-19T14:15:30;8.80;;;3.08;;
6626;SDS011;3349;49.830;8.748;2023-11-19T14:17:57;8.35;;;2.90;;
6626;SDS011;3349;49.830;8.748;2023-11-19T14:20:25;8.68;;;2.95;;
6626;SDS011;3349;49.830;8.748;2023-11-19T14:22:52;10.35;;;2.97;;
6626;SDS011;3349;49.830;8.748;2023-11-19T14:25:18;8.00;;;2.22;;
6626;SDS011;3349;49.830;8.748;2023-11-19T14:27:47;7.70;;;2.08;;
6626;SDS011;3349;49.830;8.748;2023-11-19T14:30:14;6.90;;;2.17;;
6626;SDS011;3349;49.830;8.748;2023-11-19T14:32:41;4.00;;;1.73;;
6626;SDS011;3349;49.830;8.748;2023-11-19T14:35:10;4.43;;;2.20;;
6626;SDS011;3349;49.830;8.748;2023-11-19T14:37:38;7.18;;;2.30;;
6626;SDS011;3349;49.830;8.748;2023-11-19T14:40:06;7.93;;;2.50;;
6626;SDS011;3349;49.830;8.748;2023-11-19T14:42:34;9.73;;;2.70;;
6626;SDS011;3349;49.830;8.748;2023-11-19T14:45:02;10.07;;;2.90;;
6626;SDS011;3349;49.830;8.748;2023-11-19T14:47:29;8.27;;;2.60;;
6626;SDS011;3349;49.830;8.748;2023-11-19T14:49:56;10.15;;;2.90;;
6626;SDS011;3349;49.830;8.748;2023-11-19T14:52:23;7.18;;;2.50;;
6626;SDS011;3349;49.830;8.748;2023-11-19T14:54:51;11.07;;;3.40;;
6626;SDS011;3349;49.830;8.748;2023-11-19T14:57:19;6.78;;;3.10;;
6626;SDS011;3349;49.830;8.748;2023-11-19T14:59:45;6.53;;;2.83;;
6626;SDS011;3349;49.830;8.748;2023-11-19T15:02:12;6.82;;;2.35;;
6626;SDS011;3349;49.830;8.748;2023-11-19T15:04:39;7.00;;;2.40;;
6626;SDS011;3349;49.830;8.748;2023-11-19T15:07:06;6.82;;;2.83;;
6626;SDS011;3349;49.830;8.748;2023-11-19T15:09:33;11.05;;;3.25;;
6626;SDS011;3349;49.830;8.748;2023-11-19T15:12:03;5.03;;;2.63;;
6626;SDS011;3349;49.830;8.748;2023-11-19T15:14:30;6.30;;;2.78;;
6626;SDS011;3349;49.830;8.748;2023-11-19T15:16:57;7.47;;;2.25;;
6626;SDS011;3349;49.830;8.748;2023-11-19T15:19:23;4.40;;;2.03;;
6626;SDS011;3349;49.830;8.748;2023-11-19T15:21:50;9.52;;;1.95;;
6626;SDS011;3349;49.830;8.748;2023-11-19T15:24:17;10.50;;;2.85;;